createdAt,value
2019-05-03T00:00:55.530Z,75.32
2019-05-03T00:01:55.536Z,75.32
2019-05-03T00:02:55.515Z,75.73
2019-05-03T00:03:55.491Z,75.52
2019-05-03T00:04:55.483Z,75.83
2019-05-03T00:05:55.492Z,76.79
2019-05-03T00:06:55.487Z,75.11
2019-05-03T00:07:55.450Z,75.32
2019-05-03T00:08:55.433Z,76.86
2019-05-03T00:09:55.421Z,75.73
2019-05-03T00:10:55.414Z,75.62
2019-05-03T00:11:55.409Z,75.73
2019-05-03T00:12:55.417Z,75.52
2019-05-03T00:13:55.372Z,75.56
2019-05-03T00:14:55.370Z,75.56
2019-05-03T00:15:55.366Z,74.94
2019-05-03T00:16:55.354Z,75.35
2019-05-03T00:17:55.378Z,74.94
2019-05-03T00:18:55.322Z,75.15
2019-05-03T00:19:55.318Z,76.38
2019-05-03T00:20:55.296Z,76.79
2019-05-03T00:21:55.296Z,75.25
2019-05-03T00:22:55.305Z,75.56
2019-05-03T00:23:55.291Z,75.35
2019-05-03T00:25:05.366Z,76.38
2019-05-03T00:25:56.245Z,76.58
2019-05-03T00:26:55.240Z,76.79
2019-05-03T00:27:55.244Z,76.48
2019-05-03T00:28:55.217Z,76.07
2019-05-03T00:29:55.220Z,75.76
2019-05-03T00:30:55.195Z,75.66
2019-05-03T00:31:55.175Z,74.84
2019-05-03T00:32:55.193Z,76.38
2019-05-03T00:33:55.149Z,75.15
2019-05-03T00:34:55.153Z,75.35
2019-05-03T00:35:55.142Z,75.25
2019-05-03T00:36:55.129Z,75.15
2019-05-03T00:37:55.137Z,75.45
2019-05-03T00:38:55.104Z,75.45
2019-05-03T00:39:55.086Z,74.94
2019-05-03T00:40:55.087Z,74.32
2019-05-03T00:41:55.067Z,73.10
2019-05-03T00:42:55.083Z,73.30
2019-05-03T00:43:55.057Z,74.63
2019-05-03T00:44:55.038Z,73.10
2019-05-03T00:45:55.031Z,72.06
2019-05-03T00:46:55.021Z,71.25
2019-05-03T00:47:55.030Z,71.76
2019-05-03T00:48:55.008Z,71.35
2019-05-03T00:49:54.988Z,70.94
2019-05-03T00:50:54.980Z,70.42
2019-05-03T00:51:54.962Z,70.97
2019-05-03T00:52:54.961Z,70.66
2019-05-03T00:53:54.936Z,71.69
2019-05-03T00:54:54.933Z,70.87
2019-05-03T00:55:54.928Z,70.97
2019-05-03T00:56:54.913Z,71.17
2019-05-03T00:57:54.915Z,69.84
2019-05-03T00:58:54.870Z,69.94
2019-05-03T00:59:54.865Z,70.15
2019-05-03T01:00:54.873Z,70.25
2019-05-03T01:01:54.855Z,69.02
2019-05-03T01:02:54.849Z,69.64
2019-05-03T01:03:54.831Z,69.64
2019-05-03T01:04:54.822Z,70.25
2019-05-03T01:05:54.809Z,68.91
2019-05-03T01:06:54.813Z,69.32
2019-05-03T01:07:54.824Z,69.53
2019-05-03T01:08:54.777Z,67.79
2019-05-03T01:09:54.777Z,68.71
2019-05-03T01:10:54.753Z,68.81
2019-05-03T01:11:54.739Z,67.27
2019-05-03T01:12:54.728Z,67.17
2019-05-03T01:13:54.735Z,66.86
2019-05-03T01:14:54.717Z,67.79
2019-05-03T01:15:54.717Z,67.38
2019-05-03T01:16:54.675Z,67.48
2019-05-03T01:17:54.690Z,68.40
2019-05-03T01:18:54.670Z,67.30
2019-05-03T01:19:54.652Z,67.71
2019-05-03T01:20:54.649Z,67.07
2019-05-03T01:21:54.637Z,68.64
2019-05-03T01:22:54.616Z,67.82
2019-05-03T01:23:54.632Z,68.33
2019-05-03T01:24:54.596Z,69.36
2019-05-03T01:25:54.577Z,69.05
2019-05-03T01:26:54.580Z,67.71
2019-05-03T01:27:54.566Z,68.33
2019-05-03T01:28:54.577Z,69.15
2019-05-03T01:29:54.540Z,68.74
2019-05-03T01:30:54.529Z,68.95
2019-05-03T01:31:54.515Z,68.85
2019-05-03T01:32:54.543Z,68.95
2019-05-03T01:33:54.539Z,68.95
2019-05-03T01:34:54.481Z,68.95
2019-05-03T01:35:54.477Z,68.02
2019-05-03T01:36:54.464Z,67.30
2019-05-03T01:37:54.450Z,67.61
2019-05-03T01:38:54.478Z,68.43
2019-05-03T01:39:54.435Z,67.23
2019-05-03T01:40:54.419Z,66.89
2019-05-03T01:41:54.423Z,67.54
2019-05-03T01:42:54.393Z,66.28
2019-05-03T01:43:54.380Z,65.66
2019-05-03T01:44:54.399Z,66.41
2019-05-03T01:45:54.366Z,66.79
2019-05-03T01:46:54.355Z,66.51
2019-05-03T01:47:54.353Z,66.51
2019-05-03T01:48:54.338Z,65.45
2019-05-03T01:49:54.335Z,65.45
2019-05-03T01:50:54.317Z,65.28
2019-05-03T01:51:54.310Z,64.25
2019-05-03T01:52:54.292Z,62.81
2019-05-03T01:53:54.302Z,62.92
2019-05-03T01:54:54.267Z,62.81
2019-05-03T01:55:54.254Z,62.92
2019-05-03T01:56:58.688Z,63.12
2019-05-03T01:57:54.221Z,62.30
2019-05-03T01:58:54.248Z,62.30
2019-05-03T01:59:54.215Z,62.60
2019-05-03T02:00:54.210Z,62.60
2019-05-03T02:01:54.192Z,62.09
2019-05-03T02:02:54.183Z,62.81
2019-05-03T02:03:54.173Z,62.19
2019-05-03T02:04:54.174Z,62.95
2019-05-03T02:05:54.152Z,62.84
2019-05-03T02:06:54.135Z,62.53
2019-05-03T02:07:54.119Z,62.74
2019-05-03T02:08:54.140Z,63.15
2019-05-03T02:09:54.097Z,62.95
2019-05-03T02:10:54.105Z,63.56
2019-05-03T02:11:54.081Z,63.15
2019-05-03T02:12:54.066Z,63.76
2019-05-03T02:13:54.060Z,62.95
2019-05-03T02:14:54.063Z,63.15
2019-05-03T02:15:54.026Z,63.25
2019-05-03T02:16:54.023Z,62.33
2019-05-03T02:17:54.007Z,62.53
2019-05-03T02:18:54.005Z,62.95
2019-05-03T02:19:54.016Z,63.76
2019-05-03T02:20:53.976Z,63.46
2019-05-03T02:21:53.974Z,63.25
2019-05-03T02:22:53.960Z,63.87
2019-05-03T02:23:53.945Z,64.59
2019-05-03T02:24:53.961Z,64.59
2019-05-03T02:25:56.760Z,64.69
2019-05-03T02:26:53.908Z,64.48
2019-05-03T02:27:53.910Z,64.41
2019-05-03T02:28:53.885Z,64.31
2019-05-03T02:29:53.896Z,65.20
2019-05-03T02:30:53.878Z,64.62
2019-05-03T02:31:53.872Z,65.34
2019-05-03T02:32:53.856Z,64.31
2019-05-03T02:33:53.839Z,64.90
2019-05-03T02:34:53.850Z,64.69
2019-05-03T02:35:53.808Z,64.90
2019-05-03T02:36:54.010Z,65.03
2019-05-03T02:37:53.801Z,64.59
2019-05-03T02:38:53.841Z,65.95
2019-05-03T02:39:53.789Z,66.27
2019-05-03T02:40:53.757Z,65.23
2019-05-03T02:41:59.754Z,66.27
2019-05-03T02:42:55.289Z,65.13
2019-05-03T02:43:56.062Z,65.31
2019-05-03T02:44:55.359Z,65.44
2019-05-03T02:45:56.515Z,66.88
2019-05-03T02:46:56.275Z,66.16
2019-05-03T02:47:55.416Z,66.78
2019-05-03T02:48:55.714Z,66.54
2019-05-03T02:49:56.005Z,66.16
2019-05-03T02:50:56.043Z,65.34
2019-05-03T02:51:55.489Z,66.58
2019-05-03T02:52:55.177Z,66.67
2019-05-03T02:53:56.739Z,66.47
2019-05-03T02:54:55.399Z,66.58
2019-05-03T02:55:55.937Z,66.67
2019-05-03T02:56:55.970Z,67.19
2019-05-03T02:57:56.038Z,66.37
2019-05-03T02:58:55.757Z,66.06
2019-05-03T02:59:54.935Z,66.99
2019-05-03T03:00:56.116Z,66.27
2019-05-03T03:01:55.812Z,66.67
2019-05-03T03:02:55.653Z,67.30
2019-05-03T03:03:56.049Z,67.19
2019-05-03T03:04:56.172Z,67.71
2019-05-03T03:05:55.950Z,66.88
2019-05-03T03:06:55.626Z,67.09
2019-05-03T03:07:55.738Z,66.99
2019-05-03T03:08:55.989Z,66.58
2019-05-03T03:09:55.636Z,66.27
2019-05-03T03:10:55.585Z,66.99
2019-05-03T03:11:55.735Z,64.83
2019-05-03T03:12:55.274Z,64.83
2019-05-03T03:13:55.209Z,64.93
2019-05-03T03:14:55.107Z,65.03
2019-05-03T03:15:55.383Z,65.13
2019-05-03T03:16:55.825Z,65.13
2019-05-03T03:17:55.818Z,64.51
2019-05-03T03:18:55.693Z,63.28
2019-05-03T03:19:55.211Z,63.62
2019-05-03T03:20:55.229Z,64.44
2019-05-03T03:21:56.105Z,64.51
2019-05-03T03:22:55.511Z,63.28
2019-05-03T03:23:55.910Z,63.93
2019-05-03T03:24:55.744Z,63.62
2019-05-03T03:25:55.620Z,64.54
2019-05-03T03:26:56.314Z,64.44
2019-05-03T03:27:55.622Z,64.54
2019-05-03T03:28:55.711Z,64.14
2019-05-03T03:29:55.268Z,64.86
2019-05-03T03:30:57.185Z,64.86
2019-05-03T03:31:57.450Z,64.68
2019-05-03T03:32:57.794Z,64.99
2019-05-03T03:33:58.877Z,64.47
2019-05-03T03:35:00.600Z,65.50
2019-05-03T03:36:01.279Z,64.99
2019-05-03T03:37:00.785Z,64.99
2019-05-03T03:37:55.987Z,66.33
2019-05-03T03:38:55.396Z,66.12
2019-05-03T03:39:53.106Z,65.12
2019-05-03T03:40:56.419Z,65.40
2019-05-03T03:41:55.748Z,65.50
2019-05-03T03:42:55.531Z,65.02
2019-05-03T03:43:55.627Z,65.22
2019-05-03T03:44:53.049Z,65.64
2019-05-03T03:45:55.588Z,65.64
2019-05-03T03:46:55.846Z,65.84
2019-05-03T03:47:55.797Z,65.46
2019-05-03T03:48:55.381Z,65.64
2019-05-03T03:49:55.215Z,66.70
2019-05-03T03:50:55.911Z,66.60
2019-05-03T03:51:52.974Z,66.80
2019-05-03T03:52:55.794Z,67.21
2019-05-03T03:53:55.448Z,66.91
2019-05-03T03:54:55.286Z,67.14
2019-05-03T03:55:52.939Z,66.63
2019-05-03T03:57:02.165Z,66.52
2019-05-03T03:57:55.663Z,67.14
2019-05-03T03:58:55.378Z,67.79
2019-05-03T03:59:52.896Z,67.86
2019-05-03T04:00:55.359Z,67.58
2019-05-03T04:01:55.095Z,67.76
2019-05-03T04:02:55.308Z,67.58
2019-05-03T04:03:52.838Z,67.90
2019-05-03T04:04:52.828Z,67.38
2019-05-03T04:05:55.387Z,67.79
2019-05-03T04:06:55.718Z,67.79
2019-05-03T04:07:56.065Z,68.00
2019-05-03T04:08:52.811Z,68.00
2019-05-03T04:09:52.778Z,68.41
2019-05-03T04:10:55.721Z,67.69
2019-05-03T04:11:52.767Z,68.51
2019-05-03T04:12:52.753Z,67.79
2019-05-03T04:13:52.742Z,68.21
2019-05-03T04:14:52.733Z,68.30
2019-05-03T04:15:52.722Z,68.90
2019-05-03T04:16:52.729Z,68.59
2019-05-03T04:17:52.726Z,67.66
2019-05-03T04:18:55.008Z,67.86
2019-05-03T04:19:52.686Z,68.38
2019-05-03T04:20:52.658Z,67.69
2019-05-03T04:21:52.676Z,68.38
2019-05-03T04:22:52.634Z,67.76
2019-05-03T04:23:55.472Z,68.59
2019-05-03T04:24:55.142Z,68.17
2019-05-03T04:25:52.605Z,67.66
2019-05-03T04:26:52.615Z,67.73
2019-05-03T04:27:52.582Z,67.73
2019-05-03T04:28:52.565Z,66.97
2019-05-03T04:29:52.558Z,67.73
2019-05-03T04:30:55.206Z,67.29
2019-05-03T04:31:52.555Z,67.39
2019-05-03T04:32:52.537Z,66.87
2019-05-03T04:33:52.534Z,67.15
2019-05-03T04:34:52.510Z,67.49
2019-05-03T04:35:52.497Z,67.05
2019-05-03T04:36:52.495Z,66.64
2019-05-03T04:37:52.468Z,66.64
2019-05-03T04:38:52.463Z,66.22
2019-05-03T04:39:52.485Z,66.43
2019-05-03T04:40:52.442Z,66.22
2019-05-03T04:41:52.453Z,66.50
2019-05-03T04:42:52.405Z,66.61
2019-05-03T04:43:55.235Z,66.30
2019-05-03T04:44:52.408Z,66.19
2019-05-03T04:45:52.392Z,66.16
2019-05-03T04:46:56.000Z,66.27
2019-05-03T04:47:55.666Z,64.66
2019-05-03T04:48:52.354Z,63.78
2019-05-03T04:49:52.342Z,62.70
2019-05-03T04:50:54.967Z,60.92
2019-05-03T04:51:52.322Z,60.31
2019-05-03T04:52:52.328Z,61.23
2019-05-03T04:53:52.301Z,61.23
2019-05-03T04:54:52.281Z,60.85
2019-05-03T04:55:52.267Z,61.67
2019-05-03T04:56:52.283Z,62.21
2019-05-03T04:57:52.275Z,62.62
2019-05-03T04:58:52.229Z,62.24
2019-05-03T04:59:52.242Z,62.55
2019-05-03T05:00:52.197Z,62.68
2019-05-03T05:01:52.189Z,63.40
2019-05-03T05:02:54.876Z,63.91
2019-05-03T05:03:52.178Z,64.36
2019-05-03T05:04:52.167Z,64.46
2019-05-03T05:05:52.154Z,64.84
2019-05-03T05:06:52.127Z,64.25
2019-05-03T05:07:52.116Z,64.87
2019-05-03T05:08:52.134Z,64.32
2019-05-03T05:09:52.104Z,63.91
2019-05-03T05:10:52.096Z,64.46
2019-05-03T05:11:52.097Z,64.36
2019-05-03T05:12:52.099Z,65.80
2019-05-03T05:13:52.058Z,65.08
2019-05-03T05:14:52.041Z,64.66
2019-05-03T05:15:52.038Z,64.46
2019-05-03T05:16:52.030Z,64.56
2019-05-03T05:17:52.036Z,65.28
2019-05-03T05:18:51.999Z,65.08
2019-05-03T05:19:52.223Z,64.56
2019-05-03T05:20:51.974Z,64.25
2019-05-03T05:21:51.995Z,64.87
2019-05-03T05:22:51.994Z,64.56
2019-05-03T05:23:51.958Z,64.56
2019-05-03T05:24:51.940Z,64.01
2019-05-03T05:25:51.944Z,63.71
2019-05-03T05:26:51.916Z,61.54
2019-05-03T05:27:54.872Z,59.48
2019-05-03T05:28:51.911Z,56.71
2019-05-03T05:29:51.881Z,53.57
2019-05-03T05:30:51.873Z,52.48
2019-05-03T05:31:51.863Z,51.72
2019-05-03T05:32:51.855Z,49.33
2019-05-03T05:33:51.861Z,47.88
2019-05-03T05:34:51.835Z,48.44
2019-05-03T05:35:51.823Z,46.17
2019-05-03T05:36:51.813Z,45.94
2019-05-03T05:37:51.815Z,44.90
2019-05-03T05:38:51.782Z,45.01
2019-05-03T05:39:51.786Z,45.09
2019-05-03T05:40:51.762Z,44.26
2019-05-03T05:41:51.742Z,42.92
2019-05-03T05:42:51.792Z,43.02
2019-05-03T05:43:51.727Z,43.24
2019-05-03T05:44:51.725Z,43.37
2019-05-03T05:45:51.717Z,43.79
2019-05-03T05:46:51.685Z,45.33
2019-05-03T05:47:51.682Z,44.27
2019-05-03T05:48:52.125Z,43.14
2019-05-03T05:49:51.702Z,42.94
2019-05-03T05:50:51.656Z,43.04
2019-05-03T05:51:51.641Z,43.04
2019-05-03T05:52:51.620Z,43.38
2019-05-03T05:53:51.611Z,43.93
2019-05-03T05:54:51.627Z,45.80
2019-05-03T05:55:51.617Z,46.05
2019-05-03T05:56:51.591Z,46.58
2019-05-03T05:58:02.011Z,47.27
2019-05-03T05:58:52.562Z,46.23
2019-05-03T05:59:51.548Z,45.62
2019-05-03T06:00:51.568Z,45.15
2019-05-03T06:01:51.525Z,45.03
2019-05-03T06:02:51.529Z,42.61
2019-05-03T06:03:51.512Z,41.64
2019-05-03T06:04:51.496Z,40.30
2019-05-03T06:05:51.480Z,39.15
2019-05-03T06:06:51.501Z,38.44
2019-05-03T06:07:51.473Z,39.23
2019-05-03T06:08:51.455Z,36.77
2019-05-03T06:09:51.448Z,37.46
2019-05-03T06:10:51.447Z,36.11
2019-05-03T06:11:51.432Z,36.20
2019-05-03T06:12:51.397Z,35.18
2019-05-03T06:13:51.391Z,34.74
2019-05-03T06:14:51.402Z,33.84
2019-05-03T06:15:51.376Z,35.41
2019-05-03T06:16:51.378Z,36.04
2019-05-03T06:17:51.377Z,36.00
2019-05-03T06:18:51.337Z,34.81
2019-05-03T06:19:51.325Z,32.67
2019-05-03T06:20:51.319Z,31.54
2019-05-03T06:21:51.336Z,33.54
2019-05-03T06:22:51.335Z,33.05
2019-05-03T06:23:51.286Z,33.00
2019-05-03T06:24:51.318Z,34.22
2019-05-03T06:25:51.292Z,32.87
2019-05-03T06:26:51.256Z,31.64
2019-05-03T06:27:51.244Z,33.00
2019-05-03T06:28:51.251Z,32.85
2019-05-03T06:29:51.243Z,33.94
2019-05-03T06:30:51.199Z,32.10
2019-05-03T06:31:51.187Z,32.88
2019-05-03T06:32:51.188Z,34.38
2019-05-03T06:33:52.572Z,33.84
2019-05-03T06:34:51.175Z,33.02
2019-05-03T06:35:51.155Z,31.29
2019-05-03T06:36:51.533Z,30.65
2019-05-03T06:37:51.135Z,32.42
2019-05-03T06:38:51.136Z,32.47
2019-05-03T06:39:51.139Z,31.12
2019-05-03T06:40:51.094Z,30.04
2019-05-03T06:41:51.094Z,32.52
2019-05-03T06:42:54.790Z,33.00
2019-05-03T06:43:52.053Z,32.65
2019-05-03T06:44:51.080Z,30.95
2019-05-03T06:45:51.044Z,32.92
2019-05-03T06:46:51.028Z,32.90
2019-05-03T06:47:51.024Z,34.97
2019-05-03T06:48:51.011Z,34.64
2019-05-03T06:49:51.005Z,33.69
2019-05-03T06:50:51.024Z,32.76
2019-05-03T06:51:50.990Z,33.73
2019-05-03T06:52:50.967Z,35.50
2019-05-03T06:53:50.951Z,37.01
2019-05-03T06:54:50.951Z,36.00
2019-05-03T06:55:50.929Z,36.37
2019-05-03T06:56:50.966Z,34.54
2019-05-03T06:57:50.911Z,34.52
2019-05-03T06:58:50.910Z,34.52
2019-05-03T06:59:50.892Z,34.77
2019-05-03T07:00:50.892Z,35.95
2019-05-03T07:01:50.890Z,39.42
2019-05-03T07:02:50.870Z,38.14
2019-05-03T07:03:50.839Z,39.92
2019-05-03T07:04:50.845Z,41.17
2019-05-03T07:05:50.820Z,41.21
2019-05-03T07:06:50.836Z,42.55
2019-05-03T07:07:50.806Z,41.56
2019-05-03T07:08:50.791Z,40.81
2019-05-03T07:09:50.779Z,40.24
2019-05-03T07:10:50.812Z,39.44
2019-05-03T07:11:50.786Z,37.18
2019-05-03T07:12:50.777Z,34.27
2019-05-03T07:13:50.741Z,34.92
2019-05-03T07:14:50.725Z,34.88
2019-05-03T07:15:50.710Z,35.92
2019-05-03T07:16:50.698Z,36.22
2019-05-03T07:17:50.704Z,36.59
2019-05-03T07:18:50.672Z,34.56
2019-05-03T07:19:50.676Z,36.93
2019-05-03T07:20:50.649Z,37.38
2019-05-03T07:21:50.653Z,38.43
2019-05-03T07:22:50.647Z,38.57
2019-05-03T07:23:50.631Z,40.83
2019-05-03T07:24:50.606Z,40.24
2019-05-03T07:25:50.606Z,41.09
2019-05-03T07:26:50.617Z,41.30
2019-05-03T07:27:50.586Z,41.30
2019-05-03T07:28:50.573Z,40.94
2019-05-03T07:29:50.577Z,41.48
2019-05-03T07:30:50.544Z,40.40
2019-05-03T07:31:50.558Z,40.14
2019-05-03T07:32:50.571Z,40.36
2019-05-03T07:33:50.499Z,41.80
2019-05-03T07:34:50.502Z,39.62
2019-05-03T07:35:50.497Z,35.82
2019-05-03T07:36:50.491Z,33.10
2019-05-03T07:37:50.487Z,30.21
2019-05-03T07:38:50.449Z,28.64
2019-05-03T07:39:50.446Z,27.09
2019-05-03T07:40:50.452Z,28.42
2019-05-03T07:41:50.454Z,29.62
2019-05-03T07:42:50.408Z,32.39
2019-05-03T07:43:50.402Z,32.54
2019-05-03T07:44:50.388Z,33.50
2019-05-03T07:45:50.372Z,33.73
2019-05-03T07:46:50.387Z,34.55
2019-05-03T07:47:51.128Z,34.66
2019-05-03T07:48:50.357Z,32.43
2019-05-03T07:49:50.338Z,32.70
2019-05-03T07:50:50.342Z,33.38
2019-05-03T07:51:50.317Z,30.65
2019-05-03T07:52:50.339Z,27.96
2019-05-03T07:53:50.292Z,28.31
2019-05-03T07:54:50.295Z,25.46
2019-05-03T07:55:50.275Z,23.93
2019-05-03T07:56:50.266Z,24.82
2019-05-03T07:57:50.247Z,22.71
2019-05-03T07:58:59.993Z,23.99
2019-05-03T07:59:51.228Z,23.18
2019-05-03T08:01:03.559Z,21.78
2019-05-03T08:01:51.211Z,22.76
2019-05-03T08:02:50.216Z,24.24
2019-05-03T08:03:50.187Z,23.30
2019-05-03T08:04:50.172Z,24.01
2019-05-03T08:05:50.170Z,25.47
2019-05-03T08:06:50.159Z,25.56
2019-05-03T08:07:50.164Z,25.62
2019-05-03T08:08:50.153Z,25.74
2019-05-03T08:09:50.126Z,27.19
2019-05-03T08:10:50.106Z,28.76
2019-05-03T08:11:50.099Z,30.93
2019-05-03T08:12:50.099Z,32.37
2019-05-03T08:13:50.105Z,30.58
2019-05-03T08:14:50.059Z,30.01
2019-05-03T08:15:50.051Z,31.62
2019-05-03T08:16:50.035Z,31.81
2019-05-03T08:17:50.025Z,30.36
2019-05-03T08:18:50.032Z,29.17
2019-05-03T08:19:50.035Z,28.39
2019-05-03T08:20:50.002Z,27.32
2019-05-03T08:21:50.012Z,25.16
2019-05-03T08:22:49.976Z,23.00
2019-05-03T08:23:49.959Z,21.98
2019-05-03T08:24:49.969Z,21.05
2019-05-03T08:25:50.937Z,21.68
2019-05-03T08:26:49.946Z,22.51
2019-05-03T08:27:49.944Z,25.15
2019-05-03T08:28:49.921Z,25.61
2019-05-03T08:29:49.921Z,25.76
2019-05-03T08:30:49.896Z,26.47
2019-05-03T08:31:49.879Z,25.17
2019-05-03T08:32:49.916Z,23.63
2019-05-03T08:33:49.877Z,22.56
2019-05-03T08:34:49.854Z,20.84
2019-05-03T08:35:49.850Z,20.21
2019-05-03T08:36:49.828Z,18.90
2019-05-03T08:37:49.837Z,18.77
2019-05-03T08:38:49.819Z,19.74
2019-05-03T08:39:49.846Z,18.84
2019-05-03T08:40:49.796Z,18.80
2019-05-03T08:41:49.779Z,19.81
2019-05-03T08:42:49.760Z,19.36
2019-05-03T08:43:49.751Z,18.71
2019-05-03T08:44:49.742Z,19.87
2019-05-03T08:45:49.747Z,18.86
2019-05-03T08:46:49.742Z,19.30
2019-05-03T08:47:49.713Z,20.56
2019-05-03T08:48:49.696Z,21.90
2019-05-03T08:49:49.704Z,23.45
2019-05-03T08:50:49.717Z,24.69
2019-05-03T08:51:49.677Z,25.03
2019-05-03T08:52:49.666Z,27.58
2019-05-03T08:53:49.661Z,27.70
2019-05-03T08:54:49.636Z,25.49
2019-05-03T08:55:49.626Z,22.02
2019-05-03T08:56:49.628Z,23.12
2019-05-03T08:57:49.620Z,24.27
2019-05-03T08:58:49.602Z,23.91
2019-05-03T08:59:49.597Z,24.99
2019-05-03T09:00:49.634Z,24.11
2019-05-03T09:01:49.558Z,26.06
2019-05-03T09:02:49.556Z,26.07
2019-05-03T09:03:49.552Z,27.01
2019-05-03T09:04:49.545Z,27.66
2019-05-03T09:05:49.561Z,28.60
2019-05-03T09:06:49.527Z,27.81
2019-05-03T09:07:50.884Z,23.84
2019-05-03T09:08:49.475Z,25.92
2019-05-03T09:09:49.469Z,26.35
2019-05-03T09:10:49.476Z,27.70
2019-05-03T09:11:49.462Z,28.02
2019-05-03T09:12:49.472Z,28.44
2019-05-03T09:13:49.439Z,28.65
2019-05-03T09:14:49.420Z,28.03
2019-05-03T09:15:49.405Z,27.35
2019-05-03T09:16:49.402Z,26.01
2019-05-03T09:17:49.483Z,26.42
2019-05-03T09:18:49.368Z,27.66
2019-05-03T09:19:49.361Z,27.05
2019-05-03T09:20:49.353Z,27.47
2019-05-03T09:21:49.342Z,27.98
2019-05-03T09:22:49.335Z,29.22
2019-05-03T09:23:49.346Z,30.14
2019-05-03T09:24:49.312Z,30.16
2019-05-03T09:25:49.468Z,29.71
2019-05-03T09:26:49.292Z,27.53
2019-05-03T09:27:49.294Z,28.45
2019-05-03T09:28:49.255Z,28.30
2019-05-03T09:29:49.256Z,29.63
2019-05-03T09:30:49.263Z,29.96
2019-05-03T09:31:49.241Z,31.10
2019-05-03T09:32:49.248Z,31.02
2019-05-03T09:33:49.249Z,30.83
2019-05-03T09:34:49.205Z,29.90
2019-05-03T09:35:49.189Z,27.90
2019-05-03T09:36:49.192Z,24.44
2019-05-03T09:37:49.177Z,25.01
2019-05-03T09:38:49.174Z,23.15
2019-05-03T09:39:49.157Z,22.32
2019-05-03T09:40:51.867Z,23.15
2019-05-03T09:41:49.121Z,23.46
2019-05-03T09:42:49.132Z,22.76
2019-05-03T09:43:49.132Z,21.55
2019-05-03T09:44:49.092Z,21.92
2019-05-03T09:45:49.092Z,20.62
2019-05-03T09:46:49.068Z,21.62
2019-05-03T09:47:49.058Z,19.74
2019-05-03T09:48:49.053Z,20.90
2019-05-03T09:49:49.064Z,19.97
2019-05-03T09:50:49.029Z,18.74
2019-05-03T09:51:49.017Z,18.42
2019-05-03T09:52:48.999Z,16.91
2019-05-03T09:53:48.987Z,17.41
2019-05-03T09:54:49.011Z,17.99
2019-05-03T09:55:48.976Z,16.39
2019-05-03T09:56:56.074Z,16.48
2019-05-03T09:57:49.950Z,16.38
2019-05-03T09:58:48.937Z,17.11
2019-05-03T09:59:57.345Z,18.35
2019-05-03T10:00:49.926Z,18.99
2019-05-03T10:01:48.916Z,20.94
2019-05-03T10:02:48.901Z,22.78
2019-05-03T10:03:48.900Z,23.43
2019-05-03T10:04:48.918Z,25.47
2019-05-03T10:05:48.878Z,25.18
2019-05-03T10:06:48.890Z,25.48
2019-05-03T10:07:48.846Z,23.95
2019-05-03T10:08:48.851Z,25.04
2019-05-03T10:09:48.833Z,22.60
2019-05-03T10:10:48.836Z,21.75
2019-05-03T10:11:48.795Z,20.71
2019-05-03T10:12:48.787Z,19.18
2019-05-03T10:13:49.078Z,18.56
2019-05-03T10:14:48.789Z,18.97
2019-05-03T10:15:48.799Z,18.82
2019-05-03T10:16:48.764Z,18.71
2019-05-03T10:17:48.751Z,18.12
2019-05-03T10:18:48.726Z,17.00
2019-05-03T10:19:48.715Z,17.09
2019-05-03T10:20:48.733Z,16.62
2019-05-03T10:21:48.709Z,18.13
2019-05-03T10:22:48.683Z,18.35
2019-05-03T10:23:48.683Z,19.48
2019-05-03T10:24:48.675Z,20.51
2019-05-03T10:25:48.672Z,19.54
2019-05-03T10:26:48.647Z,21.36
2019-05-03T10:27:48.640Z,22.89
2019-05-03T10:28:48.638Z,22.73
2019-05-03T10:29:48.625Z,24.35
2019-05-03T10:30:48.626Z,23.85
2019-05-03T10:31:48.597Z,23.69
2019-05-03T10:32:48.576Z,21.77
2019-05-03T10:33:48.571Z,21.62
2019-05-03T10:34:48.573Z,20.89
2019-05-03T10:35:48.575Z,19.88
2019-05-03T10:36:48.546Z,19.68
2019-05-03T10:37:48.534Z,19.69
2019-05-03T10:38:48.524Z,19.29
2019-05-03T10:39:48.517Z,19.37
2019-05-03T10:40:48.528Z,19.90
2019-05-03T10:41:48.499Z,19.83
2019-05-03T10:42:48.473Z,21.25
2019-05-03T10:43:48.459Z,20.78
2019-05-03T10:44:48.454Z,21.61
2019-05-03T10:45:48.445Z,22.93
2019-05-03T10:46:48.453Z,23.65
2019-05-03T10:47:48.427Z,23.97
2019-05-03T10:48:48.423Z,25.72
2019-05-03T10:49:48.419Z,25.93
2019-05-03T10:50:50.874Z,26.66
2019-05-03T10:51:48.394Z,27.08
2019-05-03T10:52:48.391Z,26.79
2019-05-03T10:53:48.363Z,26.60
2019-05-03T10:54:48.346Z,27.51
2019-05-03T10:55:48.334Z,27.31
2019-05-03T10:56:48.346Z,26.18
2019-05-03T10:57:48.314Z,27.08
2019-05-03T10:58:48.317Z,25.96
2019-05-03T10:59:48.303Z,26.59
2019-05-03T11:00:52.722Z,26.50
2019-05-03T11:01:49.290Z,27.20
2019-05-03T11:02:48.263Z,26.31
2019-05-03T11:03:48.248Z,27.42
2019-05-03T11:04:48.238Z,26.09
2019-05-03T11:05:48.229Z,25.90
2019-05-03T11:06:48.246Z,27.72
2019-05-03T11:07:48.212Z,28.14
2019-05-03T11:08:48.197Z,28.35
2019-05-03T11:09:52.252Z,28.23
2019-05-03T11:10:48.177Z,28.55
2019-05-03T11:11:48.206Z,28.75
2019-05-03T11:12:48.159Z,27.23
2019-05-03T11:13:48.152Z,27.33
2019-05-03T11:14:48.126Z,28.05
2019-05-03T11:15:48.115Z,28.58
2019-05-03T11:16:48.128Z,28.59
2019-05-03T11:17:48.124Z,29.01
2019-05-03T11:18:48.097Z,28.01
2019-05-03T11:19:48.085Z,28.42
2019-05-03T11:20:48.076Z,28.74
2019-05-03T11:21:48.092Z,27.94
2019-05-03T11:22:48.045Z,27.32
2019-05-03T11:23:48.026Z,27.42
2019-05-03T11:24:48.025Z,27.19
2019-05-03T11:25:48.016Z,25.30
2019-05-03T11:26:48.011Z,24.94
2019-05-03T11:27:47.998Z,23.90
2019-05-03T11:28:47.979Z,22.75
2019-05-03T11:29:47.977Z,22.43
2019-05-03T11:30:55.674Z,21.50
2019-05-03T11:31:48.953Z,21.58
2019-05-03T11:32:47.963Z,20.15
2019-05-03T11:33:47.927Z,21.03
2019-05-03T11:34:47.912Z,20.72
2019-05-03T11:35:47.897Z,20.84
2019-05-03T11:36:47.887Z,20.46
2019-05-03T11:37:47.891Z,21.19
2019-05-03T11:38:47.916Z,21.91
2019-05-03T11:39:47.870Z,21.42
2019-05-03T11:40:47.847Z,23.35
2019-05-03T11:41:47.839Z,23.88
2019-05-03T11:42:47.851Z,24.32
2019-05-03T11:43:47.831Z,25.35
2019-05-03T11:44:47.818Z,26.39
2019-05-03T11:45:47.821Z,25.79
2019-05-03T11:46:47.772Z,27.11
2019-05-03T11:47:47.793Z,26.12
2019-05-03T11:48:47.748Z,27.12
2019-05-03T11:49:47.755Z,27.33
2019-05-03T11:50:47.759Z,26.82
2019-05-03T11:51:47.735Z,25.70
2019-05-03T11:52:47.720Z,25.49
2019-05-03T11:53:47.758Z,24.03
2019-05-03T11:54:47.690Z,23.39
2019-05-03T11:55:47.682Z,22.45
2019-05-03T11:56:47.676Z,21.00
2019-05-03T11:57:47.671Z,19.75
2019-05-03T11:58:47.650Z,19.65
2019-05-03T11:59:47.662Z,20.04
2019-05-03T12:00:47.623Z,19.82
2019-05-03T12:01:47.615Z,18.52
2019-05-03T12:02:47.620Z,19.91
2019-05-03T12:03:47.597Z,18.99
2019-05-03T12:04:47.590Z,18.77
2019-05-03T12:05:47.604Z,18.16
2019-05-03T12:06:47.572Z,18.57
2019-05-03T12:07:47.559Z,19.10
2019-05-03T12:08:47.539Z,18.99
2019-05-03T12:09:47.531Z,18.88
2019-05-03T12:10:55.250Z,18.44
2019-05-03T12:11:48.522Z,16.72
2019-05-03T12:12:47.498Z,16.83
2019-05-03T12:13:47.491Z,16.93
2019-05-03T12:14:47.498Z,16.43
2019-05-03T12:15:47.508Z,16.64
2019-05-03T12:17:54.205Z,16.83
2019-05-03T12:18:53.418Z,16.42
2019-05-03T12:19:49.624Z,15.61
2019-05-03T12:20:48.493Z,15.80
2019-05-03T12:21:48.046Z,15.20
2019-05-03T12:22:47.930Z,15.61
2019-05-03T12:23:48.051Z,14.82
2019-05-03T12:24:48.091Z,15.43
2019-05-03T12:25:47.847Z,16.23
2019-05-03T12:26:47.359Z,16.96
2019-05-03T12:27:47.347Z,17.79
2019-05-03T12:28:47.359Z,18.54
2019-05-03T12:29:47.334Z,19.19
2019-05-03T12:30:47.322Z,19.60
2019-05-03T12:31:47.337Z,20.92
2019-05-03T12:32:47.296Z,21.84
2019-05-03T12:33:47.282Z,22.77
2019-05-03T12:34:47.290Z,22.29
2019-05-03T12:35:47.272Z,23.92
2019-05-03T12:36:47.257Z,24.74
2019-05-03T12:37:47.267Z,25.35
2019-05-03T12:38:47.238Z,25.96
2019-05-03T12:39:47.215Z,26.39
2019-05-03T12:40:47.212Z,27.20
2019-05-03T12:41:48.188Z,27.30
2019-05-03T12:42:47.226Z,27.50
2019-05-03T12:43:47.185Z,27.22
2019-05-03T12:44:47.157Z,27.82
2019-05-03T12:45:47.181Z,28.52
2019-05-03T12:46:47.155Z,26.91
2019-05-03T12:47:47.133Z,27.01
2019-05-03T12:48:47.164Z,27.42
2019-05-03T12:49:47.128Z,27.40
2019-05-03T12:50:47.602Z,27.11
2019-05-03T12:51:47.085Z,27.11
2019-05-03T12:52:50.292Z,28.12
2019-05-03T12:53:47.083Z,28.51